SBMQ/MCP METAR and TAF weather

Enter ICAO airport designator
Station Type Date Time Source
SBMQ METAR 2020/09/22 22:00 UTC NOAA

SBMQ 222200Z 05010KT 9999 FEW018 29/24 Q1011


Station Type Date Time Source
SBMQ Decoded METAR 2020/09/22 22:00 UTC NOAA

Macapa, Brazil (SBMQ) 00-02N 050-03W
Sep 22, 2020 - 06:00 PM EDT / 2020.09.22 2200 UTC
Wind: from the NE (050 degrees) at 12 MPH (10 KT):0
Visibility: greater than 7 mile(s):0
Sky conditions: mostly clear
Temperature: 84 F (29 C)
Dew Point: 75 F (24 C)
Relative Humidity: 74%
Pressure (altimeter): 29.85 in. Hg (1011 hPa)
ob: SBMQ 222200Z 05010KT 9999 FEW018 29/24 Q1011
cycle: 22

Station Type Date Time Source
SBMQ TAF 2020/09/22 18:27 UTC NOAA

TAF SBMQ 221500Z 2218/2318 07010KT 9999 FEW020 TN25/2309Z TX34/2317Z
BECMG 2219/2221 FEW025 FEW030TCU
BECMG 2300/2302 03010KT FEW015
BECMG 2305/2307 33005KT
BECMG 2312/2314 06010KT SCT020
RMK PGY

Example: see airport list